Time;durP1;ratioP1;P1;durP2;ratioP2;P2;SDS_P1;SDS_P2;PMS_P1;PMS_P2;Temp;Humidity;BMP_temperature;BMP_pressure;BME280_temperature;BME280_humidity;BME280_pressure;Samples;Min_cycle;Max_cycle;Signal;HPM_P1;HPM_P2
2023/07/15 00:02:54;;;;;;;5.60;4.20;;;;;;;17.49;63.01;100136.86;128702;1273;114897;-67
2023/07/15 00:05:57;;;;;;;7.40;4.50;;;;;;;17.44;63.04;100136.00;128888;1285;115138;-68
2023/07/15 00:08:59;;;;;;;8.10;4.60;;;;;;;17.40;63.18;100134.39;129017;1267;114844;-68
2023/07/15 00:12:02;;;;;;;11.00;5.60;;;;;;;17.36;63.28;100136.33;129038;1282;114799;-67
2023/07/15 00:15:05;;;;;;;7.50;4.70;;;;;;;17.29;63.37;100139.52;128641;1268;114938;-67
2023/07/15 00:18:09;;;;;;;8.10;5.00;;;;;;;17.24;63.58;100133.48;128619;1272;114797;-68
2023/07/15 00:21:22;;;;;;;8.30;6.00;;;;;;;17.19;63.79;100128.98;128606;1273;116581;-68
2023/07/15 00:24:25;;;;;;;10.50;4.90;;;;;;;17.14;64.02;100122.14;128621;1287;127957;-64
2023/07/15 00:27:27;;;;;;;9.20;4.70;;;;;;;17.11;64.15;100124.61;128943;1270;114811;-67
2023/07/15 00:30:31;;;;;;;7.10;5.40;;;;;;;17.07;64.27;100121.30;129009;1271;114761;-68
2023/07/15 00:33:33;;;;;;;9.60;4.70;;;;;;;17.03;64.21;100117.25;128974;1271;114808;-68
2023/07/15 00:36:35;;;;;;;7.70;4.90;;;;;;;16.99;64.42;100119.72;129275;1271;115220;-65
2023/07/15 00:39:38;;;;;;;5.50;4.10;;;;;;;16.95;64.54;100118.45;128944;1284;115202;-68
2023/07/15 00:42:50;;;;;;;11.10;5.30;;;;;;;16.91;64.67;100105.93;128935;1286;114800;-67
2023/07/15 00:46:17;;;;;;;8.70;6.10;;;;;;;16.89;64.80;100102.33;129053;1270;129274;-67
2023/07/15 00:49:23;;;;;;;7.10;5.90;;;;;;;16.85;64.80;100103.65;128957;1271;115218;-69
2023/07/15 00:52:25;;;;;;;8.80;5.40;;;;;;;16.82;65.09;100100.48;129319;1270;115218;-68
2023/07/15 00:55:27;;;;;;;8.00;5.10;;;;;;;16.80;65.04;100099.58;129032;1272;115093;-68
2023/07/15 00:58:30;;;;;;;15.00;5.30;;;;;;;16.78;65.14;100094.19;129101;1288;114970;-69
2023/07/15 01:01:34;;;;;;;7.10;5.20;;;;;;;16.75;65.09;100088.95;129051;1273;114706;-65
2023/07/15 01:04:36;;;;;;;6.00;4.60;;;;;;;16.73;65.33;100086.41;128821;1285;128061;-65
2023/07/15 01:07:38;;;;;;;10.10;5.30;;;;;;;16.71;65.37;100091.98;129205;1278;114750;-64
2023/07/15 01:10:40;;;;;;;9.60;5.60;;;;;;;16.68;65.55;100086.94;129004;1271;114867;-64
2023/07/15 01:13:42;;;;;;;9.20;4.70;;;;;;;16.67;65.63;100091.04;128971;1270;114821;-68
2023/07/15 01:16:47;;;;;;;6.20;4.70;;;;;;;16.65;65.66;100086.98;129049;1269;115387;-67
2023/07/15 01:19:50;;;;;;;5.00;4.50;;;;;;;16.63;65.61;100084.29;128649;1273;115177;-68
2023/07/15 01:22:52;;;;;;;10.50;4.80;;;;;;;16.59;65.76;100080.09;129383;1270;114786;-67
2023/07/15 01:25:58;;;;;;;8.80;4.60;;;;;;;16.56;65.95;100081.74;129170;1288;114859;-69
2023/07/15 01:29:00;;;;;;;13.10;5.30;;;;;;;16.52;66.17;100082.05;129058;1265;116387;-65
2023/07/15 01:32:02;;;;;;;9.60;5.00;;;;;;;16.51;66.10;100084.35;128995;1271;115285;-69
2023/07/15 01:35:05;;;;;;;8.50;5.20;;;;;;;16.48;66.12;100080.63;129060;1288;114813;-69
2023/07/15 01:38:07;;;;;;;8.20;4.70;;;;;;;16.44;66.18;100089.55;129175;1267;114838;-69
2023/07/15 01:41:09;;;;;;;6.30;4.60;;;;;;;16.39;66.40;100091.04;128956;1271;114760;-69
2023/07/15 01:44:12;;;;;;;8.20;5.10;;;;;;;16.35;66.55;100087.94;129047;1271;114774;-70
2023/07/15 01:47:14;;;;;;;7.70;5.70;;;;;;;16.30;66.68;100083.59;129369;1269;115991;-67
2023/07/15 01:50:17;;;;;;;7.20;4.90;;;;;;;16.26;66.87;100087.89;128943;1270;114831;-66
2023/07/15 01:53:20;;;;;;;5.40;4.80;;;;;;;16.21;66.89;100086.77;129070;1280;114749;-66
2023/07/15 01:56:22;;;;;;;7.40;4.90;;;;;;;16.17;67.16;100086.55;129105;1288;114968;-68
2023/07/15 01:59:24;;;;;;;10.00;5.40;;;;;;;16.15;67.20;100089.63;129162;1271;115954;-70
2023/07/15 02:02:27;;;;;;;11.40;5.70;;;;;;;16.12;67.40;100087.46;129152;1271;115321;-69
2023/07/15 02:05:29;;;;;;;6.50;5.00;;;;;;;16.10;67.44;100083.49;128957;1279;114781;-68
2023/07/15 02:08:32;;;;;;;9.30;5.40;;;;;;;16.07;67.80;100082.08;129039;1288;114834;-69
2023/07/15 02:11:35;;;;;;;8.90;5.20;;;;;;;16.05;67.86;100080.23;128991;1271;114848;-69
2023/07/15 02:14:37;;;;;;;11.80;6.10;;;;;;;16.03;67.81;100088.00;129050;1269;114748;-70
2023/07/15 02:17:39;;;;;;;7.90;5.60;;;;;;;16.01;68.07;100090.64;129072;1278;115268;-69
2023/07/15 02:20:41;;;;;;;9.70;5.30;;;;;;;15.98;68.22;100085.46;129356;1281;115290;-70
2023/07/15 02:23:44;;;;;;;6.80;5.30;;;;;;;15.95;68.39;100081.04;128936;1270;114740;-69
2023/07/15 02:26:46;;;;;;;6.30;5.10;;;;;;;15.91;68.28;100072.27;129055;1269;114772;-69
2023/07/15 02:29:48;;;;;;;8.20;6.10;;;;;;;15.89;68.53;100071.92;129044;1288;116162;-69
2023/07/15 02:32:50;;;;;;;9.30;5.80;;;;;;;15.87;68.64;100073.19;128667;1288;115184;-70
2023/07/15 02:35:52;;;;;;;9.60;5.40;;;;;;;15.84;68.72;100075.72;129262;1270;114746;-69
2023/07/15 02:38:54;;;;;;;7.40;6.30;;;;;;;15.81;68.58;100077.86;129012;1270;115310;-69
2023/07/15 02:41:57;;;;;;;6.90;5.70;;;;;;;15.79;68.80;100082.02;128937;1269;115365;-69
2023/07/15 02:45:01;;;;;;;7.20;5.70;;;;;;;15.76;68.64;100080.77;129147;1278;114821;-69
2023/07/15 02:48:03;;;;;;;9.10;5.20;;;;;;;15.73;68.94;100079.38;129233;1271;114783;-69
2023/07/15 02:51:05;;;;;;;10.20;5.70;;;;;;;15.69;69.01;100076.82;129237;1267;114759;-68
2023/07/15 02:54:07;;;;;;;8.50;6.40;;;;;;;15.66;69.14;100076.33;129005;1271;114750;-68
2023/07/15 02:57:09;;;;;;;10.60;6.80;;;;;;;15.62;69.33;100074.48;128727;1278;114987;-69
2023/07/15 03:00:12;;;;;;;7.20;5.20;;;;;;;15.59;69.27;100076.09;129246;1278;114737;-70
2023/07/15 03:03:14;;;;;;;8.30;6.30;;;;;;;15.57;69.54;100082.17;129012;1278;114837;-69
2023/07/15 03:06:17;;;;;;;9.10;6.00;;;;;;;15.56;69.83;100080.32;129291;1265;115184;-70
2023/07/15 03:09:19;;;;;;;13.10;6.70;;;;;;;15.56;70.09;100081.36;129255;1265;128546;-69
2023/07/15 03:12:21;;;;;;;9.70;6.00;;;;;;;15.57;70.07;100082.52;128906;1278;115259;-69
2023/07/15 03:15:23;;;;;;;14.20;7.50;;;;;;;15.59;70.07;100086.00;129015;1278;114859;-69
2023/07/15 03:18:26;;;;;;;10.30;6.70;;;;;;;15.61;70.16;100086.73;129049;1271;114860;-69
2023/07/15 03:21:28;;;;;;;9.90;6.70;;;;;;;15.65;70.24;100087.02;129085;1288;114729;-69
2023/07/15 03:24:31;;;;;;;8.90;5.70;;;;;;;15.67;70.36;100087.55;129006;1270;114801;-69
2023/07/15 03:27:33;;;;;;;11.70;7.20;;;;;;;15.69;70.64;100086.51;129272;1269;115385;-68
2023/07/15 03:30:35;;;;;;;8.80;6.20;;;;;;;15.73;70.54;100083.92;128746;1288;340488;-67
2023/07/15 03:33:37;;;;;;;11.20;8.00;;;;;;;15.76;70.69;100087.42;128797;1270;115294;-68
2023/07/15 03:36:39;;;;;;;9.40;7.00;;;;;;;15.79;70.71;100084.12;128952;1269;114798;-65
2023/07/15 03:39:42;;;;;;;8.50;7.00;;;;;;;15.83;70.78;100083.53;129062;1268;114968;-65
2023/07/15 03:42:44;;;;;;;10.80;6.60;;;;;;;15.87;70.98;100079.14;128702;1284;116598;-68
2023/07/15 03:45:47;;;;;;;9.70;7.60;;;;;;;15.91;71.17;100074.45;129246;1270;114831;-67
2023/07/15 03:48:49;;;;;;;8.80;6.30;;;;;;;15.96;71.01;100069.81;129181;1280;114790;-69
2023/07/15 03:51:52;;;;;;;9.00;7.00;;;;;;;16.01;71.04;100069.19;128896;1269;114763;-69
2023/07/15 03:54:54;;;;;;;9.60;7.20;;;;;;;16.08;71.12;100074.66;128982;1271;115191;-69
2023/07/15 03:57:56;;;;;;;8.60;6.60;;;;;;;16.14;71.09;100074.55;128951;1267;115302;-68
2023/07/15 04:00:58;;;;;;;14.10;6.50;;;;;;;16.21;70.98;100073.84;129056;1270;114769;-69
2023/07/15 04:04:07;;;;;;;12.30;7.90;;;;;;;16.27;71.26;100073.90;129012;1287;114885;-68
2023/07/15 04:07:09;;;;;;;13.60;7.80;;;;;;;16.34;71.01;100073.73;128760;1272;114920;-69
2023/07/15 04:10:11;;;;;;;11.90;7.50;;;;;;;16.41;71.08;100076.95;128851;1281;115151;-67
2023/07/15 04:13:14;;;;;;;11.30;6.50;;;;;;;16.48;71.23;100072.98;129028;1272;114748;-68
2023/07/15 04:16:17;;;;;;;11.90;6.80;;;;;;;16.56;71.06;100072.98;128857;1272;114877;-65
2023/07/15 04:19:19;;;;;;;12.70;7.50;;;;;;;16.64;71.10;100069.80;129040;1270;116437;-68
2023/07/15 04:22:23;;;;;;;13.50;7.60;;;;;;;16.72;71.15;100070.08;129121;1269;115537;-68
2023/07/15 04:25:25;;;;;;;10.80;7.50;;;;;;;16.79;71.11;100070.92;129072;1278;114846;-64
2023/07/15 04:28:28;;;;;;;13.00;8.00;;;;;;;16.89;71.12;100073.09;129075;1269;114789;-66
2023/07/15 04:31:30;;;;;;;12.70;8.30;;;;;;;16.97;71.08;100074.45;128988;1270;114851;-68
2023/07/15 04:34:33;;;;;;;12.10;8.80;;;;;;;17.06;71.15;100065.62;129068;1270;114884;-68
2023/07/15 04:37:37;;;;;;;11.00;8.10;;;;;;;17.16;71.16;100065.17;129463;1269;114843;-67
2023/07/15 04:40:41;;;;;;;11.20;7.70;;;;;;;17.28;71.25;100064.17;128925;1282;116475;-66
2023/07/15 04:43:43;;;;;;;15.50;8.00;;;;;;;17.45;71.48;100063.17;128983;1270;114849;-66
2023/07/15 04:46:45;;;;;;;10.90;7.70;;;;;;;18.07;72.15;100059.98;129250;1270;114874;-66
2023/07/15 04:49:48;;;;;;;8.90;6.90;;;;;;;19.15;72.13;100056.83;129343;1267;114949;-69
2023/07/15 04:52:50;;;;;;;14.80;7.70;;;;;;;20.37;71.18;100050.73;129359;1274;115275;-69
2023/07/15 04:55:53;;;;;;;14.20;7.30;;;;;;;21.67;70.13;100055.36;128942;1267;114759;-65
2023/07/15 04:58:55;;;;;;;11.30;6.80;;;;;;;22.87;67.85;100060.21;129380;1265;115370;-66
2023/07/15 05:01:57;;;;;;;10.00;6.60;;;;;;;24.01;65.80;100056.35;129077;1270;114799;-65
2023/07/15 05:04:59;;;;;;;10.10;6.20;;;;;;;24.92;64.32;100062.55;129146;1270;114667;-67
2023/07/15 05:08:13;;;;;;;11.30;6.10;;;;;;;25.72;62.90;100064.90;129087;1288;114778;-67
2023/07/15 05:11:17;;;;;;;12.50;6.10;;;;;;;26.60;61.11;100066.86;129412;1288;121127;-68
2023/07/15 05:14:19;;;;;;;10.50;5.60;;;;;;;27.30;59.36;100070.16;128778;1288;115216;-67
2023/07/15 05:17:22;;;;;;;7.20;5.80;;;;;;;27.86;58.05;100066.23;129173;1265;115396;-68
2023/07/15 05:20:24;;;;;;;6.50;5.10;;;;;;;28.18;56.12;100060.71;129104;1266;114708;-66
2023/07/15 05:23:31;;;;;;;9.80;6.00;;;;;;;28.27;54.60;100059.24;129104;1270;114739;-68
2023/07/15 05:26:33;;;;;;;8.60;5.90;;;;;;;28.32;53.73;100061.56;129084;1277;114928;-68
2023/07/15 05:29:35;;;;;;;6.30;5.40;;;;;;;28.44;53.34;100063.48;129237;1267;114797;-67
2023/07/15 05:32:37;;;;;;;6.50;5.40;;;;;;;28.60;52.55;100069.54;129317;1267;115458;-68
2023/07/15 05:35:39;;;;;;;11.10;5.70;;;;;;;28.71;51.54;100068.81;129217;1267;115465;-68
2023/07/15 05:38:43;;;;;;;12.80;6.50;;;;;;;28.76;51.35;100070.52;129248;1269;114771;-68
2023/07/15 05:41:45;;;;;;;8.40;5.70;;;;;;;28.80;50.74;100065.13;129296;1265;114743;-69
2023/07/15 05:44:47;;;;;;;4.90;3.90;;;;;;;28.80;50.27;100063.48;129234;1270;114842;-68
2023/07/15 05:47:49;;;;;;;8.30;5.10;;;;;;;28.73;49.41;100059.17;129346;1288;114762;-67
2023/07/15 05:50:51;;;;;;;6.50;5.00;;;;;;;28.62;49.42;100061.54;129246;1278;120275;-67
2023/07/15 05:53:53;;;;;;;6.00;5.00;;;;;;;28.68;49.62;100063.16;129252;1270;115046;-68
2023/07/15 05:56:55;;;;;;;6.10;4.90;;;;;;;28.82;49.34;100064.42;129372;1277;115204;-68
2023/07/15 05:59:58;;;;;;;5.90;4.90;;;;;;;29.06;49.07;100058.84;129046;1273;114907;-68
2023/07/15 06:03:00;;;;;;;6.90;5.20;;;;;;;29.32;48.40;100058.83;129286;1270;115133;-68
2023/07/15 06:06:03;;;;;;;6.60;4.70;;;;;;;29.57;48.11;100056.73;129257;1265;115269;-68
2023/07/15 06:09:05;;;;;;;5.10;4.50;;;;;;;29.86;47.78;100055.06;129332;1265;114848;-68
2023/07/15 06:12:07;;;;;;;6.80;4.20;;;;;;;30.16;47.07;100055.27;129293;1270;120388;-73
2023/07/15 06:15:09;;;;;;;8.70;4.70;;;;;;;30.40;46.26;100055.73;129305;1271;114806;-74
2023/07/15 06:18:13;;;;;;;6.20;4.90;;;;;;;30.71;45.87;100057.38;129206;1278;114888;-73
2023/07/15 06:21:14;;;;;;;7.80;5.10;;;;;;;31.03;45.41;100062.77;129362;1264;114814;-73
2023/07/15 06:24:19;;;;;;;7.30;4.40;;;;;;;31.29;44.90;100061.12;129190;1279;115008;-74
2023/07/15 06:27:21;;;;;;;6.30;4.20;;;;;;;31.63;44.57;100065.55;129306;1270;114871;-74
2023/07/15 06:30:23;;;;;;;5.30;4.60;;;;;;;31.99;43.88;100064.73;129313;1277;114786;-74
2023/07/15 06:33:25;;;;;;;9.00;4.60;;;;;;;32.27;43.01;100065.53;129488;1265;114813;-74
2023/07/15 06:36:27;;;;;;;8.00;4.00;;;;;;;32.54;42.84;100065.52;129310;1288;115302;-72
2023/07/15 06:39:29;;;;;;;7.00;4.50;;;;;;;32.76;42.03;100066.47;129583;1271;115284;-74
2023/07/15 06:42:31;;;;;;;8.00;4.60;;;;;;;32.87;41.72;100061.86;129579;1285;115352;-74
2023/07/15 06:45:36;;;;;;;7.20;4.90;;;;;;;32.97;41.63;100060.29;129340;1267;114811;-75
2023/07/15 06:48:38;;;;;;;5.90;4.40;;;;;;;33.21;41.25;100056.39;129266;1273;114808;-74
2023/07/15 06:51:40;;;;;;;8.10;4.30;;;;;;;33.41;40.83;100055.78;129324;1270;114803;-73
2023/07/15 06:54:42;;;;;;;6.00;4.30;;;;;;;33.51;40.23;100053.17;129388;1265;115371;-73
2023/07/15 06:57:44;;;;;;;7.00;4.30;;;;;;;33.66;40.04;100050.58;129098;1267;116512;-73
2023/07/15 07:00:46;;;;;;;9.30;3.90;;;;;;;33.89;39.44;100047.73;129373;1288;114844;-74
2023/07/15 07:03:48;;;;;;;4.70;4.00;;;;;;;34.10;38.76;100042.66;129399;1283;114919;-75
2023/07/15 07:06:50;;;;;;;5.50;3.70;;;;;;;34.17;37.79;100039.27;129176;1267;114830;-73
2023/07/15 07:09:52;;;;;;;4.70;3.80;;;;;;;34.32;37.83;100034.73;129262;1270;114750;-74
2023/07/15 07:12:54;;;;;;;5.70;3.20;;;;;;;34.59;37.82;100029.23;129341;1265;115455;-72
2023/07/15 07:15:57;;;;;;;4.50;3.70;;;;;;;34.90;37.43;100030.56;129329;1279;119271;-72
2023/07/15 07:18:59;;;;;;;5.60;3.40;;;;;;;35.21;36.70;100029.67;129344;1271;114758;-73
2023/07/15 07:22:01;;;;;;;6.10;3.70;;;;;;;35.49;36.26;100028.19;129316;1270;114811;-73
2023/07/15 07:25:05;;;;;;;5.00;3.40;;;;;;;35.71;35.26;100029.49;129316;1269;115358;-73
2023/07/15 07:28:06;;;;;;;7.80;4.30;;;;;;;35.95;35.05;100025.86;129053;1270;114784;-71
2023/07/15 07:31:09;;;;;;;4.50;3.30;;;;;;;36.22;34.52;100032.02;129276;1270;115367;-72
2023/07/15 07:34:11;;;;;;;6.20;3.60;;;;;;;36.45;34.15;100032.56;129401;1271;114773;-72
2023/07/15 07:37:13;;;;;;;15.40;3.60;;;;;;;36.54;33.56;100031.23;129334;1270;114822;-74
2023/07/15 07:40:15;;;;;;;5.80;4.20;;;;;;;36.66;33.37;100023.68;128986;1266;115077;-75
2023/07/15 07:43:18;;;;;;;5.40;3.80;;;;;;;36.90;33.03;100022.92;129367;1288;114851;-71
2023/07/15 07:46:20;;;;;;;7.40;3.50;;;;;;;37.15;33.46;100022.23;129379;1288;115267;-73
2023/07/15 07:49:22;;;;;;;4.50;3.40;;;;;;;37.52;33.87;100018.49;129355;1278;114842;-76
2023/07/15 07:52:23;;;;;;;5.60;3.40;;;;;;;37.93;33.43;100017.41;129495;1284;115188;-74
2023/07/15 07:55:26;;;;;;;8.90;3.30;;;;;;;38.24;33.10;100014.94;129586;1287;114828;-76
2023/07/15 07:58:28;;;;;;;9.20;3.30;;;;;;;38.42;32.80;100014.80;129395;1268;120205;-77
2023/07/15 08:01:31;;;;;;;7.50;3.40;;;;;;;38.58;32.62;100015.92;129303;1268;115003;-72
2023/07/15 08:04:33;;;;;;;5.20;3.20;;;;;;;38.56;31.10;100015.97;129539;1268;114753;-73
2023/07/15 08:07:35;;;;;;;4.60;3.60;;;;;;;38.40;31.24;100009.52;129444;1283;114763;-71
2023/07/15 08:10:38;;;;;;;4.70;3.40;;;;;;;38.47;31.62;100005.10;129260;1288;114778;-72
2023/07/15 08:13:40;;;;;;;5.10;3.10;;;;;;;38.66;31.01;100005.05;129431;1288;114835;-70
2023/07/15 08:16:42;;;;;;;5.80;3.10;;;;;;;38.78;30.97;100002.20;129300;1288;114791;-71
2023/07/15 08:19:44;;;;;;;6.10;3.80;;;;;;;38.68;30.07;99996.44;129331;1288;114827;-72
2023/07/15 08:22:46;;;;;;;5.00;3.70;;;;;;;38.48;30.77;99990.45;129317;1270;114694;-73
2023/07/15 08:25:48;;;;;;;4.10;3.00;;;;;;;38.63;31.20;99995.52;129238;1269;115178;-71
2023/07/15 08:28:50;;;;;;;5.80;3.30;;;;;;;38.73;30.87;99992.48;129372;1267;115382;-70
2023/07/15 08:31:52;;;;;;;6.40;3.40;;;;;;;38.74;29.95;99992.39;129415;1265;114844;-72
2023/07/15 08:35:01;;;;;;;7.00;3.40;;;;;;;38.74;30.59;99992.39;129380;1267;114774;-72
2023/07/15 08:38:03;;;;;;;4.20;2.80;;;;;;;38.81;30.78;99990.29;129179;1270;119125;-71
2023/07/15 08:41:05;;;;;;;4.70;2.90;;;;;;;38.84;30.64;99989.60;129316;1268;114840;-74
2023/07/15 08:44:07;;;;;;;3.10;2.80;;;;;;;38.93;30.62;99988.36;129407;1268;114771;-72
2023/07/15 08:47:10;;;;;;;3.90;3.00;;;;;;;38.97;30.57;99988.38;129073;1273;114977;-72
2023/07/15 08:50:15;;;;;;;4.40;3.00;;;;;;;39.03;30.21;99986.95;129327;1270;114781;-72
2023/07/15 08:53:23;;;;;;;3.40;3.00;;;;;;;38.97;30.14;99987.70;129093;1273;114900;-72
2023/07/15 08:56:25;;;;;;;4.60;2.60;;;;;;;38.79;29.67;99983.78;129090;1268;119367;-72
2023/07/15 08:59:27;;;;;;;3.80;2.90;;;;;;;38.56;29.52;99977.16;129300;1287;114779;-71
2023/07/15 09:02:29;;;;;;;5.80;3.00;;;;;;;38.37;29.73;99975.74;129293;1267;114746;-73
2023/07/15 09:05:31;;;;;;;5.20;3.20;;;;;;;38.34;29.90;99978.25;129378;1287;114778;-72
2023/07/15 09:08:33;;;;;;;3.40;2.20;;;;;;;38.36;29.90;99976.42;129287;1269;114780;-72
2023/07/15 09:11:40;;;;;;;6.40;2.50;;;;;;;38.39;29.96;99981.60;129346;1270;114823;-70
2023/07/15 09:14:46;;;;;;;2.90;2.60;;;;;;;38.37;29.64;99977.60;129147;1270;114814;-72
2023/07/15 09:17:56;;;;;;;4.10;2.60;;;;;;;38.20;29.46;99974.23;129271;1288;119221;-71
2023/07/15 09:21:11;;;;;;;2.90;2.50;;;;;;;38.06;29.37;99976.48;129177;1265;114969;-71
2023/07/15 09:24:13;;;;;;;3.30;2.70;;;;;;;37.97;29.78;99969.35;129325;1266;114809;-72
2023/07/15 09:27:15;;;;;;;7.00;2.80;;;;;;;37.82;29.78;99973.63;129430;1269;115205;-72
2023/07/15 09:30:18;;;;;;;6.90;2.50;;;;;;;37.71;29.42;99975.14;129381;1271;114792;-71
2023/07/15 09:33:28;;;;;;;4.90;2.10;;;;;;;37.62;29.57;99974.10;129277;1270;114788;-70
2023/07/15 09:36:31;;;;;;;2.50;2.30;;;;;;;37.50;29.63;99971.86;129082;1273;120183;-74
2023/07/15 09:39:33;;;;;;;;;;;;;;;37.44;29.91;99969.11;129268;1265;114958;-75
2023/07/15 09:42:53;;;;;;;3.90;2.30;;;;;;;37.36;29.50;99966.05;129325;1270;114758;-71
2023/07/15 09:45:56;;;;;;;5.20;2.70;;;;;;;37.10;29.18;99964.13;129279;1270;114836;-71
2023/07/15 09:48:58;;;;;;;4.90;3.80;;;;;;;36.88;29.10;99963.79;129080;1272;114902;-72
2023/07/15 09:52:03;;;;;;;2.70;2.30;;;;;;;36.65;29.12;99962.81;129264;1269;114747;-74
2023/07/15 09:55:06;;;;;;;4.50;2.50;;;;;;;36.45;29.49;99960.48;129261;1269;114857;-69
2023/07/15 09:58:24;;;;;;;6.40;2.60;;;;;;;36.27;29.69;99962.67;129129;1273;114784;-70
2023/07/15 10:01:33;;;;;;;3.20;2.70;;;;;;;36.00;29.63;99969.45;129034;1265;114927;-73
2023/07/15 10:04:36;;;;;;;3.20;2.20;;;;;;;35.70;29.94;99963.70;129362;1265;114781;-70
2023/07/15 10:07:40;;;;;;;3.00;2.10;;;;;;;35.43;29.78;99964.37;129265;1270;114832;-71
2023/07/15 10:10:43;;;;;;;4.70;2.70;;;;;;;35.17;30.35;99964.81;129206;1288;114816;-73
2023/07/15 10:13:45;;;;;;;6.10;2.10;;;;;;;34.95;30.55;99959.09;129339;1288;115416;-66
2023/07/15 10:17:15;;;;;;;4.90;2.40;;;;;;;34.69;30.18;99955.67;129041;1288;114824;-64
2023/07/15 10:20:17;;;;;;;6.50;2.80;;;;;;;34.20;30.22;99953.70;128559;1281;115374;-68
2023/07/15 10:23:28;;;;;;;3.10;2.30;;;;;;;33.92;31.00;99952.41;128968;1286;114821;-66
2023/07/15 10:26:30;;;;;;;2.90;2.20;;;;;;;33.81;31.66;99951.51;128977;1288;118947;-67
2023/07/15 10:29:32;;;;;;;4.60;2.60;;;;;;;33.77;31.73;99954.14;129022;1271;114812;-66
2023/07/15 10:32:35;;;;;;;3.40;2.20;;;;;;;33.68;31.45;99954.52;129041;1269;115362;-66
2023/07/15 10:35:40;;;;;;;3.20;2.30;;;;;;;33.54;31.29;99950.10;129007;1288;114862;-66
2023/07/15 10:38:42;;;;;;;4.60;2.60;;;;;;;33.43;31.89;99949.16;128934;1271;115475;-67
2023/07/15 10:41:52;;;;;;;3.20;2.30;;;;;;;33.28;31.02;99948.20;128802;1283;114835;-65
2023/07/15 10:44:54;;;;;;;4.80;2.60;;;;;;;33.15;30.86;99948.29;128811;1274;119341;-67
2023/07/15 10:47:58;;;;;;;7.10;2.20;;;;;;;33.08;31.26;99944.72;129060;1265;114779;-66
2023/07/15 10:51:07;;;;;;;2.50;2.30;;;;;;;33.06;31.76;99943.70;129073;1267;114802;-67
2023/07/15 10:54:09;;;;;;;3.60;2.10;;;;;;;33.00;31.09;99943.56;128760;1273;114873;-67
2023/07/15 10:57:14;;;;;;;3.70;2.00;;;;;;;32.81;30.66;99940.71;129106;1283;114789;-67
2023/07/15 11:00:16;;;;;;;8.00;2.30;;;;;;;32.68;30.98;99938.77;128842;1286;119230;-66
2023/07/15 11:03:19;;;;;;;3.20;2.20;;;;;;;32.64;31.62;99940.58;128993;1281;114737;-67
2023/07/15 11:06:25;;;;;;;2.60;2.30;;;;;;;32.62;31.70;99940.42;129009;1265;114770;-68
2023/07/15 11:09:28;;;;;;;4.20;2.50;;;;;;;32.59;31.35;99942.02;129466;1281;114770;-67
2023/07/15 11:12:32;;;;;;;5.30;1.80;;;;;;;32.54;31.20;99935.25;129330;1288;114831;-67
2023/07/15 11:15:35;;;;;;;5.60;2.50;;;;;;;32.52;31.18;99935.55;128948;1288;120411;-66
2023/07/15 11:18:38;;;;;;;2.40;2.20;;;;;;;32.53;31.18;99934.16;129003;1281;115393;-66
2023/07/15 11:21:41;;;;;;;3.60;2.00;;;;;;;32.51;30.99;99935.20;128683;1283;114780;-67
2023/07/15 11:24:46;;;;;;;4.50;2.40;;;;;;;32.46;30.96;99932.49;128805;1286;114816;-67
2023/07/15 11:27:48;;;;;;;5.30;2.00;;;;;;;32.43;31.13;99926.61;129439;1267;114778;-66
2023/07/15 11:30:50;;;;;;;3.30;1.90;;;;;;;32.42;31.07;99922.41;129038;1288;114761;-66
2023/07/15 11:33:53;;;;;;;4.00;2.10;;;;;;;32.43;31.56;99918.70;129064;1288;115259;-66
2023/07/15 11:36:55;;;;;;;5.60;2.40;;;;;;;32.46;31.51;99918.29;129032;1282;115249;-66
2023/07/15 11:39:59;;;;;;;2.50;2.30;;;;;;;32.46;31.37;99915.68;129022;1288;115436;-66
2023/07/15 11:43:01;;;;;;;6.60;2.50;;;;;;;32.45;31.31;99910.73;128997;1280;115197;-66
2023/07/15 11:46:03;;;;;;;4.60;2.30;;;;;;;32.39;30.60;99913.00;129031;1281;114784;-66
2023/07/15 11:49:06;;;;;;;4.20;2.30;;;;;;;32.29;30.49;99913.73;129137;1288;114886;-64
2023/07/15 11:52:19;;;;;;;2.90;2.20;;;;;;;32.19;30.64;99913.30;128879;1270;118979;-65
2023/07/15 11:55:25;;;;;;;3.50;2.30;;;;;;;32.16;30.69;99905.62;128833;1288;115255;-65
2023/07/15 11:58:46;;;;;;;4.00;1.90;;;;;;;32.15;30.03;99900.92;129115;1285;114774;-65
2023/07/15 12:01:48;;;;;;;2.20;2.00;;;;;;;32.10;29.47;99900.30;128995;1288;114758;-66
2023/07/15 12:04:51;;;;;;;3.80;2.10;;;;;;;32.08;29.36;99898.48;129076;1288;114845;-65
2023/07/15 12:07:53;;;;;;;4.00;2.00;;;;;;;32.10;29.46;99901.92;129086;1270;114870;-66
2023/07/15 12:10:57;;;;;;;9.80;7.00;;;;;;;32.08;30.15;99896.94;129074;1270;114743;-66
2023/07/15 12:14:00;;;;;;;3.80;2.50;;;;;;;32.12;29.96;99894.56;129113;1267;114832;-66
2023/07/15 12:17:03;;;;;;;4.10;3.50;;;;;;;32.12;29.68;99893.74;129035;1288;114730;-66
2023/07/15 12:20:06;;;;;;;5.00;2.30;;;;;;;32.12;29.63;99894.23;129024;1288;115072;-66
2023/07/15 12:23:08;;;;;;;4.10;3.40;;;;;;;32.09;29.43;99884.84;129050;1288;114782;-65
2023/07/15 12:26:11;;;;;;;2.50;2.20;;;;;;;32.05;29.62;99885.42;128988;1288;114804;-66
2023/07/15 12:29:13;;;;;;;2.60;2.40;;;;;;;32.02;29.82;99884.60;129051;1265;114676;-65
2023/07/15 12:32:15;;;;;;;2.30;2.10;;;;;;;31.97;29.71;99880.77;128922;1270;115330;-66
2023/07/15 12:35:20;;;;;;;4.50;2.70;;;;;;;31.95;29.82;99879.60;128937;1271;114745;-66
2023/07/15 12:38:22;;;;;;;3.70;2.30;;;;;;;31.96;29.69;99871.45;128755;1286;114879;-65
2023/07/15 12:41:25;;;;;;;4.20;2.60;;;;;;;31.96;29.80;99864.36;129051;1281;114777;-65
2023/07/15 12:44:27;;;;;;;4.00;2.40;;;;;;;31.98;29.77;99861.86;128823;1288;114785;-66
2023/07/15 12:47:29;;;;;;;3.70;2.40;;;;;;;31.97;29.81;99860.61;129128;1284;115141;-66
2023/07/15 12:50:32;;;;;;;3.50;2.20;;;;;;;31.94;29.91;99865.19;128980;1288;116466;-66
2023/07/15 12:53:34;;;;;;;4.20;2.30;;;;;;;31.94;30.02;99862.08;129024;1280;115211;-66
2023/07/15 12:56:36;;;;;;;3.90;2.50;;;;;;;31.91;29.67;99861.83;129230;1285;114849;-66
2023/07/15 12:59:39;;;;;;;4.20;2.90;;;;;;;31.85;29.70;99853.36;128928;1270;114960;-65
2023/07/15 13:02:42;;;;;;;3.20;2.30;;;;;;;31.80;29.90;99852.58;129057;1288;114795;-66
2023/07/15 13:05:44;;;;;;;6.20;2.30;;;;;;;31.77;29.66;99851.35;129035;1286;115439;-66
2023/07/15 13:08:46;;;;;;;2.60;2.30;;;;;;;31.75;29.76;99846.84;129211;1285;114852;-66
2023/07/15 13:11:48;;;;;;;3.20;2.30;;;;;;;31.73;29.94;99839.75;129173;1287;115990;-66
2023/07/15 13:14:51;;;;;;;5.60;2.60;;;;;;;31.73;30.11;99838.65;129137;1270;115179;-66
2023/07/15 13:17:53;;;;;;;9.50;2.40;;;;;;;31.75;30.26;99841.35;129154;1288;114745;-66
2023/07/15 13:20:56;;;;;;;5.20;2.50;;;;;;;31.75;30.23;99836.88;129048;1265;114772;-66
2023/07/15 13:23:58;;;;;;;2.90;2.30;;;;;;;31.76;30.21;99839.42;128886;1270;115358;-66
2023/07/15 13:27:00;;;;;;;4.70;2.40;;;;;;;31.79;30.33;99837.55;129126;1288;114689;-66
2023/07/15 13:30:03;;;;;;;3.80;2.50;;;;;;;31.81;30.54;99836.30;129077;1284;121464;-65
2023/07/15 13:33:05;;;;;;;3.00;2.40;;;;;;;31.84;30.44;99831.67;129122;1265;114828;-65
2023/07/15 13:36:08;;;;;;;2.50;2.00;;;;;;;31.87;30.64;99833.27;129083;1267;114781;-65
2023/07/15 13:39:42;;;;;;;2.50;2.30;;;;;;;31.88;30.42;99833.89;129264;1268;114756;-66
2023/07/15 13:42:44;;;;;;;3.90;2.40;;;;;;;31.87;30.87;99828.66;129262;1287;114727;-66
2023/07/15 13:45:46;;;;;;;2.30;2.10;;;;;;;31.87;31.02;99830.61;129207;1283;115157;-66
2023/07/15 13:48:48;;;;;;;2.60;2.40;;;;;;;31.89;31.31;99830.02;129235;1280;116335;-66
2023/07/15 13:51:51;;;;;;;8.00;2.80;;;;;;;31.89;31.36;99826.51;129130;1283;114864;-67
2023/07/15 13:54:53;;;;;;;3.30;2.60;;;;;;;31.90;31.19;99823.77;129105;1269;115215;-66
2023/07/15 13:58:09;;;;;;;3.20;2.10;;;;;;;31.91;31.11;99823.98;129040;1270;115462;-67